createdAt,value
2022-11-20T00:00:53.977Z,95.1
2022-11-20T00:02:01.270Z,87.4
2022-11-20T00:03:09.527Z,92.7
2022-11-20T00:04:18.528Z,88
2022-11-20T00:05:26.115Z,87.3
2022-11-20T00:06:33.149Z,87.1
2022-11-20T00:07:40.332Z,86.1
2022-11-20T00:08:47.827Z,86.7
2022-11-20T00:09:55.304Z,87.8
2022-11-20T00:11:02.743Z,83.6
2022-11-20T00:12:15.011Z,82
2022-11-20T00:13:24.627Z,74.6
2022-11-20T00:14:31.951Z,72.8
2022-11-20T00:15:39.175Z,73.4
2022-11-20T00:16:46.236Z,74.8
2022-11-20T00:17:53.316Z,70.8
2022-11-20T00:19:00.412Z,76.2
2022-11-20T00:20:07.551Z,79.1
2022-11-20T00:21:15.289Z,77.8
2022-11-20T00:22:22.312Z,79
2022-11-20T00:23:29.531Z,78.6
2022-11-20T00:24:41.730Z,77.6
2022-11-20T00:25:44.903Z,80.8
2022-11-20T00:26:52.165Z,82.1
2022-11-20T00:27:59.524Z,82.9
2022-11-20T00:29:06.822Z,86.5
2022-11-20T00:30:15.099Z,81.2
2022-11-20T00:31:21.483Z,83.2
2022-11-20T00:32:28.708Z,86
2022-11-20T00:33:36.033Z,84.4
2022-11-20T00:34:43.115Z,84
2022-11-20T00:35:50.155Z,83.5
2022-11-20T00:36:57.296Z,83.1
2022-11-20T00:38:04.411Z,81.2
2022-11-20T00:39:11.615Z,80.2
2022-11-20T00:40:19.979Z,81.1
2022-11-20T00:41:28.419Z,83.2
2022-11-20T00:42:37.175Z,79.7
2022-11-20T00:43:44.187Z,74.6
2022-11-20T00:44:52.166Z,76.4
2022-11-20T00:45:59.722Z,72.7
2022-11-20T00:47:09.839Z,74
2022-11-20T00:48:16.983Z,72.5
2022-11-20T00:49:24.260Z,77.4
2022-11-20T00:50:31.119Z,71.7
2022-11-20T00:51:38.351Z,72.5
2022-11-20T00:52:45.890Z,71.8
2022-11-20T00:53:53.281Z,74.2
2022-11-20T00:55:00.386Z,74.2
2022-11-20T00:56:08.056Z,82.7
2022-11-20T00:57:15.094Z,89.8
2022-11-20T00:58:22.279Z,91.7
2022-11-20T00:59:29.480Z,94.6
2022-11-20T01:00:36.790Z,89.2
2022-11-20T01:01:45.055Z,93.7
2022-11-20T01:02:52.361Z,93.9
2022-11-20T01:03:59.804Z,97.5
2022-11-20T01:05:07.210Z,97.1
2022-11-20T01:06:14.596Z,96.2
2022-11-20T01:07:27.148Z,100.8
2022-11-20T01:08:34.302Z,98.8
2022-11-20T01:09:41.619Z,100.4
2022-11-20T01:10:49.122Z,99.6
2022-11-20T01:11:57.131Z,97.7
2022-11-20T01:13:04.318Z,94.7
2022-11-20T01:14:16.668Z,101.8
2022-11-20T01:15:23.914Z,103.5
2022-11-20T01:16:31.002Z,104.6
2022-11-20T01:17:39.074Z,100.8
2022-11-20T01:18:46.495Z,104.5
2022-11-20T01:19:53.970Z,104.2
2022-11-20T01:21:01.070Z,103.7
2022-11-20T01:22:11.404Z,107.6
2022-11-20T01:23:19.342Z,108.8
2022-11-20T01:24:26.670Z,111.6
2022-11-20T01:25:33.839Z,109.8
2022-11-20T01:26:40.911Z,112.3
2022-11-20T01:27:47.954Z,108.1
2022-11-20T01:28:55.042Z,109.9
2022-11-20T01:30:02.279Z,114.6
2022-11-20T01:31:09.850Z,109.7
2022-11-20T01:32:19.442Z,117.4
2022-11-20T01:33:26.718Z,111.4
2022-11-20T01:34:33.722Z,110.5
2022-11-20T01:35:41.870Z,110.6
2022-11-20T01:36:49.143Z,112
2022-11-20T01:37:56.274Z,113.5
2022-11-20T01:39:03.479Z,110.7
2022-11-20T01:40:15.875Z,115.9
2022-11-20T01:41:22.819Z,110.5
2022-11-20T01:42:35.130Z,106.9
2022-11-20T01:43:50.647Z,113
2022-11-20T01:44:58.198Z,110.2
2022-11-20T01:46:05.629Z,106.5
2022-11-20T01:47:18.138Z,103.8
2022-11-20T01:48:33.410Z,105
2022-11-20T01:49:41.018Z,106.3
2022-11-20T01:50:48.422Z,103.5
2022-11-20T01:51:56.342Z,110.9
2022-11-20T01:53:03.652Z,109
2022-11-20T01:54:11.034Z,111.4
2022-11-20T01:55:23.055Z,114.6
2022-11-20T01:56:30.268Z,122
2022-11-20T01:57:37.299Z,120.2
2022-11-20T01:58:44.370Z,108.3
2022-11-20T01:59:51.587Z,108.6
2022-11-20T02:00:59.144Z,109.3
2022-11-20T02:02:06.374Z,108.4
2022-11-20T02:03:13.852Z,106.5
2022-11-20T02:04:20.678Z,99.6
2022-11-20T02:05:27.738Z,104.4
2022-11-20T02:06:42.766Z,102.9
2022-11-20T02:07:54.918Z,98.9
2022-11-20T02:09:01.931Z,103.7
2022-11-20T02:10:09.539Z,104.5
2022-11-20T02:11:16.769Z,102.7
2022-11-20T02:12:23.918Z,104.2
2022-11-20T02:13:36.255Z,103.7
2022-11-20T02:14:48.875Z,106.9
2022-11-20T02:15:56.158Z,102.9
2022-11-20T02:17:03.299Z,100.5
2022-11-20T02:18:11.403Z,96.4
2022-11-20T02:19:19.139Z,95.6
2022-11-20T02:20:28.875Z,100.1
2022-11-20T02:21:36.325Z,98.1
2022-11-20T02:22:49.356Z,100.3
2022-11-20T02:24:05.142Z,93.7
2022-11-20T02:25:15.195Z,94.6
2022-11-20T02:26:22.430Z,93.2
2022-11-20T02:27:29.443Z,92.8
2022-11-20T02:28:36.712Z,95.6
2022-11-20T02:29:43.826Z,90.2
2022-11-20T02:30:55.998Z,91.9
2022-11-20T02:32:04.063Z,91.3
2022-11-20T02:33:11.481Z,87.5
2022-11-20T02:34:18.459Z,84.3
2022-11-20T02:35:25.799Z,84
2022-11-20T02:36:33.100Z,79
2022-11-20T02:37:40.348Z,75.6
2022-11-20T02:38:47.494Z,71.5
2022-11-20T02:39:54.571Z,76.5
2022-11-20T02:41:01.910Z,75.5
2022-11-20T02:42:08.922Z,71
2022-11-20T02:43:17.111Z,68.7
2022-11-20T02:44:24.416Z,69
2022-11-20T02:45:31.446Z,69.4
2022-11-20T02:46:38.502Z,67.4
2022-11-20T02:47:45.706Z,71
2022-11-20T02:48:52.759Z,67.5
2022-11-20T02:50:00.034Z,66.8
2022-11-20T02:51:06.982Z,70.8
2022-11-20T02:52:14.243Z,71.2
2022-11-20T02:53:21.350Z,69.9
2022-11-20T02:54:28.671Z,68.2
2022-11-20T02:55:35.691Z,72.8
2022-11-20T02:56:42.883Z,67.7
2022-11-20T02:57:49.958Z,70.6
2022-11-20T02:58:57.118Z,75.9
2022-11-20T03:00:04.442Z,73.8
2022-11-20T03:01:12.266Z,85.8
2022-11-20T03:02:19.730Z,83.9
2022-11-20T03:03:27.254Z,82.9
2022-11-20T03:04:34.366Z,79.8
2022-11-20T03:05:41.490Z,76.6
2022-11-20T03:06:48.531Z,78.3
2022-11-20T03:07:55.738Z,85.8
2022-11-20T03:09:02.965Z,83.7
2022-11-20T03:10:09.931Z,86.7
2022-11-20T03:11:17.099Z,84.9
2022-11-20T03:12:24.226Z,84.7
2022-11-20T03:13:31.507Z,84.4
2022-11-20T03:14:38.458Z,78.2
2022-11-20T03:15:45.673Z,77.3
2022-11-20T03:16:52.745Z,74.8
2022-11-20T03:17:59.810Z,72.1
2022-11-20T03:19:07.006Z,67.8
2022-11-20T03:20:15.438Z,76
2022-11-20T03:21:22.556Z,72
2022-11-20T03:22:29.680Z,73.7
2022-11-20T03:23:36.518Z,72.5
2022-11-20T03:24:43.731Z,74.5
2022-11-20T03:25:50.974Z,76.3
2022-11-20T03:26:57.942Z,82.8
2022-11-20T03:28:05.162Z,88.6
2022-11-20T03:29:12.239Z,91.2
2022-11-20T03:30:19.566Z,88.2
2022-11-20T03:31:26.484Z,86.6
2022-11-20T03:32:35.342Z,91.5
2022-11-20T03:33:42.286Z,86.5
2022-11-20T03:34:49.498Z,89
2022-11-20T03:35:56.563Z,88.2
2022-11-20T03:37:06.807Z,85.2
2022-11-20T03:38:14.140Z,86.3
2022-11-20T03:39:21.520Z,79.3
2022-11-20T03:40:28.270Z,83.5
2022-11-20T03:41:36.474Z,84
2022-11-20T03:42:43.671Z,83.2
2022-11-20T03:43:50.814Z,83.3
2022-11-20T03:45:00.376Z,86.7
2022-11-20T03:46:07.566Z,84.5
2022-11-20T03:47:14.846Z,83.8
2022-11-20T03:48:21.926Z,82.1
2022-11-20T03:49:28.958Z,81.4
2022-11-20T03:50:36.138Z,79.6
2022-11-20T03:51:43.322Z,77.8
2022-11-20T03:52:50.556Z,81.2
2022-11-20T03:53:57.554Z,86.1
2022-11-20T03:55:04.726Z,77.8
2022-11-20T03:56:11.902Z,78.8
2022-11-20T03:57:19.974Z,82.1
2022-11-20T03:58:27.114Z,79.6
2022-11-20T03:59:34.604Z,81.6
2022-11-20T04:00:42.355Z,83.4
2022-11-20T04:01:50.097Z,82.3
2022-11-20T04:02:58.378Z,80.2
2022-11-20T04:04:05.743Z,75.2
2022-11-20T04:05:13.322Z,71.9
2022-11-20T04:06:21.242Z,69
2022-11-20T04:07:28.484Z,67.4
2022-11-20T04:08:35.450Z,71.5
2022-11-20T04:09:43.273Z,77.7
2022-11-20T04:10:50.334Z,75
2022-11-20T04:11:57.394Z,72.9
2022-11-20T04:13:04.703Z,68.2
2022-11-20T04:14:11.875Z,73
2022-11-20T04:15:18.859Z,72.2
2022-11-20T04:16:25.995Z,69.2
2022-11-20T04:17:33.179Z,69.6
2022-11-20T04:18:41.026Z,71.7
2022-11-20T04:19:48.391Z,70.2
2022-11-20T04:20:55.387Z,69.2
2022-11-20T04:22:02.602Z,73.3
2022-11-20T04:23:09.810Z,74.3
2022-11-20T04:24:19.537Z,74.5
2022-11-20T04:25:26.558Z,76.2
2022-11-20T04:26:33.920Z,80.3
2022-11-20T04:27:40.918Z,82
2022-11-20T04:28:48.176Z,81
2022-11-20T04:29:55.164Z,79.4
2022-11-20T04:31:02.378Z,82.6
2022-11-20T04:32:14.482Z,78.9
2022-11-20T04:33:21.679Z,77.7
2022-11-20T04:34:28.773Z,72.4
2022-11-20T04:35:35.946Z,76.5
2022-11-20T04:36:43.010Z,79.5
2022-11-20T04:37:50.363Z,73.1
2022-11-20T04:38:57.514Z,77.2
2022-11-20T04:40:04.396Z,78.2
2022-11-20T04:41:11.914Z,74.4
2022-11-20T04:42:19.203Z,72.2
2022-11-20T04:43:32.154Z,75.3
2022-11-20T04:44:39.595Z,75.8
2022-11-20T04:45:46.722Z,69.7
2022-11-20T04:46:57.730Z,72.3
2022-11-20T04:48:05.127Z,73.9
2022-11-20T04:49:12.416Z,72.5
2022-11-20T04:50:19.518Z,73.1
2022-11-20T04:51:26.687Z,73.3
2022-11-20T04:52:34.174Z,71.2
2022-11-20T04:53:43.055Z,70.6
2022-11-20T04:54:50.055Z,69.2
2022-11-20T04:56:00.483Z,72.5
2022-11-20T04:57:11.421Z,73
2022-11-20T04:58:14.909Z,71.9
2022-11-20T04:59:22.527Z,66.7
2022-11-20T05:00:29.162Z,73
2022-11-20T05:01:36.345Z,70.7
2022-11-20T05:02:43.406Z,70.8
2022-11-20T05:03:50.650Z,71.1
2022-11-20T05:04:58.261Z,75.4
2022-11-20T05:06:05.754Z,74.2
2022-11-20T05:07:14.236Z,67.7
2022-11-20T05:08:21.238Z,65.9
2022-11-20T05:09:28.347Z,70.3
2022-11-20T05:10:35.913Z,66.6
2022-11-20T05:11:43.145Z,63.7
2022-11-20T05:12:50.537Z,66.2
2022-11-20T05:13:57.358Z,63.8
2022-11-20T05:15:04.596Z,60.8
2022-11-20T05:16:11.895Z,61.5
2022-11-20T05:17:18.777Z,61.8
2022-11-20T05:18:26.087Z,60.6
2022-11-20T05:19:33.306Z,58.3
2022-11-20T05:20:40.351Z,60.7
2022-11-20T05:21:49.224Z,62.3
2022-11-20T05:22:56.586Z,62.3
2022-11-20T05:24:03.640Z,62.7
2022-11-20T05:25:10.730Z,60.7
2022-11-20T05:26:18.001Z,67.1
2022-11-20T05:27:25.359Z,63
2022-11-20T05:28:32.358Z,61.7
2022-11-20T05:29:39.425Z,63
2022-11-20T05:30:46.649Z,62.7
2022-11-20T05:31:53.853Z,63.6
2022-11-20T05:33:00.769Z,64.3
2022-11-20T05:34:07.878Z,66.7
2022-11-20T05:35:15.046Z,67.6
2022-11-20T05:36:22.205Z,66.5
2022-11-20T05:37:29.318Z,65.9
2022-11-20T05:38:36.602Z,63.8
2022-11-20T05:39:43.594Z,63.4
2022-11-20T05:40:51.025Z,65.4
2022-11-20T05:41:58.370Z,65
2022-11-20T05:43:10.638Z,65.3
2022-11-20T05:44:17.982Z,66.1
2022-11-20T05:45:25.510Z,61.5
2022-11-20T05:46:32.507Z,64.2
2022-11-20T05:47:39.665Z,65.2
2022-11-20T05:48:46.726Z,61.9
2022-11-20T05:49:55.037Z,59.9
2022-11-20T05:51:01.944Z,65.3
2022-11-20T05:52:09.155Z,63.5
2022-11-20T05:53:16.299Z,65.5
2022-11-20T05:54:24.414Z,63.5
2022-11-20T05:55:31.621Z,65.8
2022-11-20T05:56:38.708Z,63.9
2022-11-20T05:57:45.907Z,60.8
2022-11-20T05:58:53.095Z,60.8
2022-11-20T06:00:00.167Z,62.6
2022-11-20T06:01:07.332Z,62.5
2022-11-20T06:02:20.470Z,62.8
2022-11-20T06:03:28.546Z,65.6
2022-11-20T06:04:36.661Z,66.8
2022-11-20T06:05:43.925Z,67
2022-11-20T06:06:51.110Z,77.2
2022-11-20T06:07:58.207Z,80.8
2022-11-20T06:09:06.394Z,85.2
2022-11-20T06:10:13.485Z,74.8
2022-11-20T06:11:20.851Z,68.5
2022-11-20T06:12:28.617Z,67.7
2022-11-20T06:13:39.264Z,65.8
2022-11-20T06:14:43.194Z,66.4
2022-11-20T06:15:50.394Z,62.9
2022-11-20T06:16:57.510Z,64.6
2022-11-20T06:18:04.676Z,64.1
2022-11-20T06:19:11.721Z,60.6
2022-11-20T06:20:18.942Z,63.8
2022-11-20T06:21:25.929Z,61.8
2022-11-20T06:22:33.186Z,60.7
2022-11-20T06:23:40.333Z,58.7
2022-11-20T06:24:47.430Z,61.6
2022-11-20T06:25:55.370Z,62.4
2022-11-20T06:27:02.225Z,60.7
2022-11-20T06:28:09.266Z,60.2
2022-11-20T06:29:16.605Z,57.4
2022-11-20T06:30:23.497Z,57.1
2022-11-20T06:31:30.694Z,59
2022-11-20T06:32:37.730Z,60.4
2022-11-20T06:33:44.910Z,64.5
2022-11-20T06:34:52.038Z,62.6
2022-11-20T06:36:01.000Z,60.7
2022-11-20T06:37:06.581Z,62.3
2022-11-20T06:38:13.514Z,63.9
2022-11-20T06:39:20.983Z,65.8
2022-11-20T06:40:27.866Z,63.8
2022-11-20T06:41:35.135Z,68.8
2022-11-20T06:42:43.554Z,67.8
2022-11-20T06:43:50.939Z,70.4
2022-11-20T06:44:57.899Z,67.7
2022-11-20T06:46:05.461Z,68.2
2022-11-20T06:47:12.669Z,70.5
2022-11-20T06:48:19.858Z,72.5
2022-11-20T06:49:27.205Z,76.2
2022-11-20T06:50:34.657Z,76.6
2022-11-20T06:51:41.702Z,74.5
2022-11-20T06:52:53.294Z,74.6
2022-11-20T06:54:01.050Z,77.7
2022-11-20T06:55:08.453Z,76.3
2022-11-20T06:56:16.214Z,72.2
2022-11-20T06:57:23.473Z,69.9
2022-11-20T06:58:30.665Z,72.5
2022-11-20T06:59:37.811Z,68.8
2022-11-20T07:00:46.054Z,77.3
2022-11-20T07:01:53.009Z,79.6
2022-11-20T07:03:00.197Z,81.1
2022-11-20T07:04:13.116Z,88
2022-11-20T07:05:20.153Z,87.7
2022-11-20T07:06:28.229Z,95
2022-11-20T07:07:35.374Z,94.3
2022-11-20T07:08:43.433Z,87.3
2022-11-20T07:09:50.869Z,91.1
2022-11-20T07:10:58.470Z,95.6
2022-11-20T07:12:05.768Z,91.8
2022-11-20T07:13:12.901Z,93.9
2022-11-20T07:14:21.018Z,95.2
2022-11-20T07:15:28.365Z,102.3
2022-11-20T07:16:35.437Z,107.4
2022-11-20T07:17:42.621Z,107.7
2022-11-20T07:18:50.929Z,106.9
2022-11-20T07:19:56.741Z,102.9
2022-11-20T07:21:04.753Z,104.1
2022-11-20T07:22:11.682Z,104.3
2022-11-20T07:23:18.706Z,106.5
2022-11-20T07:24:26.137Z,107
2022-11-20T07:25:33.657Z,102.3
2022-11-20T07:26:41.798Z,103.2
2022-11-20T07:27:48.829Z,100.3
2022-11-20T07:28:57.146Z,96
2022-11-20T07:30:04.630Z,91.5
2022-11-20T07:31:16.013Z,92.6
2022-11-20T07:32:19.761Z,90.4
2022-11-20T07:33:27.251Z,89.8
2022-11-20T07:34:34.417Z,84.7
2022-11-20T07:35:41.389Z,86.1
2022-11-20T07:36:49.377Z,87.8
2022-11-20T07:37:56.973Z,88.1
2022-11-20T07:39:05.749Z,94
2022-11-20T07:40:14.171Z,96.1
2022-11-20T07:41:21.045Z,95.9
2022-11-20T07:42:28.189Z,91.8
2022-11-20T07:43:40.945Z,88.4
2022-11-20T07:44:44.349Z,95.2
2022-11-20T07:45:52.754Z,93.3
2022-11-20T07:47:00.141Z,85.8
2022-11-20T07:48:07.357Z,85.9
2022-11-20T07:49:14.569Z,85.3
2022-11-20T07:50:23.478Z,80.3
2022-11-20T07:51:30.503Z,82.3
2022-11-20T07:52:39.357Z,84.7
2022-11-20T07:53:47.653Z,84
2022-11-20T07:54:55.014Z,82.9
2022-11-20T07:56:02.224Z,83
2022-11-20T07:57:09.557Z,78.9
2022-11-20T07:58:16.721Z,77.2
2022-11-20T07:59:24.178Z,76.9
2022-11-20T08:00:31.205Z,78
2022-11-20T08:01:39.577Z,75.8
2022-11-20T08:02:46.979Z,75.3
2022-11-20T08:03:53.922Z,79
2022-11-20T08:05:01.038Z,75.4
2022-11-20T08:06:08.605Z,73.6
2022-11-20T08:07:15.860Z,72.3
2022-11-20T08:08:23.144Z,77.3
2022-11-20T08:09:31.285Z,71.7
2022-11-20T08:10:38.289Z,68.4
2022-11-20T08:11:45.782Z,70.2
2022-11-20T08:12:59.200Z,70
2022-11-20T08:14:11.421Z,70
2022-11-20T08:15:18.493Z,66.8
2022-11-20T08:16:25.781Z,69.8
2022-11-20T08:17:32.861Z,69.6
2022-11-20T08:18:40.913Z,69.7
2022-11-20T08:19:49.702Z,70.6
2022-11-20T08:20:56.801Z,67.6
2022-11-20T08:22:07.765Z,73.7
2022-11-20T08:23:15.125Z,73.3
2022-11-20T08:24:23.721Z,72.5
2022-11-20T08:25:31.301Z,79.1
2022-11-20T08:26:38.524Z,75
2022-11-20T08:27:45.832Z,74
2022-11-20T08:28:52.870Z,78
2022-11-20T08:30:00.258Z,81
2022-11-20T08:31:07.953Z,79.8
2022-11-20T08:32:15.310Z,79.5
2022-11-20T08:33:25.145Z,83.1
2022-11-20T08:34:32.641Z,81.5
2022-11-20T08:35:40.601Z,84.4
2022-11-20T08:36:49.126Z,85.2
2022-11-20T08:37:58.506Z,86.7
2022-11-20T08:39:07.393Z,86.5
2022-11-20T08:40:19.680Z,85.1
2022-11-20T08:41:24.653Z,84.5
2022-11-20T08:42:31.821Z,88.5
2022-11-20T08:43:40.398Z,91
2022-11-20T08:44:47.542Z,92.5
2022-11-20T08:45:55.081Z,85.1
2022-11-20T08:47:03.258Z,90
2022-11-20T08:48:11.220Z,87.5
2022-11-20T08:49:18.706Z,90.5
2022-11-20T08:50:26.649Z,85.2
2022-11-20T08:51:37.171Z,86.7
2022-11-20T08:52:44.694Z,77.4
2022-11-20T08:53:51.941Z,72.6
2022-11-20T08:54:59.321Z,74.5
2022-11-20T08:56:07.406Z,76.7
2022-11-20T08:57:14.993Z,70.4
2022-11-20T08:58:22.205Z,70.1
2022-11-20T08:59:58.574Z,75.5
2022-11-20T09:00:37.048Z,79.1
2022-11-20T09:01:44.307Z,70.7
2022-11-20T09:02:52.805Z,72.7
2022-11-20T09:04:00.185Z,76.4
2022-11-20T09:05:08.536Z,75.3
2022-11-20T09:06:15.674Z,69.6
2022-11-20T09:07:22.956Z,72
2022-11-20T09:08:31.133Z,70.8
2022-11-20T09:09:40.308Z,68
2022-11-20T09:10:47.586Z,62.2
2022-11-20T09:11:58.987Z,60.4
2022-11-20T09:13:06.158Z,58.2
2022-11-20T09:14:13.352Z,63.1
2022-11-20T09:15:20.466Z,56.2
2022-11-20T09:16:27.842Z,59.4
2022-11-20T09:17:35.386Z,60.3
2022-11-20T09:18:44.297Z,56.5
2022-11-20T09:19:51.647Z,57.5
2022-11-20T09:20:59.295Z,58.2
2022-11-20T09:22:07.149Z,59.2
2022-11-20T09:23:15.112Z,60.1
2022-11-20T09:24:22.282Z,64.2
2022-11-20T09:25:30.210Z,57.3
2022-11-20T09:26:37.349Z,58.9
2022-11-20T09:27:45.488Z,57.3
2022-11-20T09:28:55.351Z,56.9
2022-11-20T09:30:00.742Z,59.2
2022-11-20T09:31:08.030Z,54.3
2022-11-20T09:32:24.238Z,56.5
2022-11-20T09:33:32.465Z,53.6
2022-11-20T09:34:40.009Z,54.7
2022-11-20T09:35:47.254Z,53.4
2022-11-20T09:36:55.166Z,49.1
2022-11-20T09:38:03.033Z,50
2022-11-20T09:39:10.353Z,54
2022-11-20T09:40:17.797Z,50.2
2022-11-20T09:41:25.397Z,50
2022-11-20T09:42:43.025Z,48.9
2022-11-20T09:43:57.990Z,47.8
2022-11-20T09:45:11.269Z,46.5
2022-11-20T09:46:32.805Z,45.9
2022-11-20T09:47:41.018Z,46.9
2022-11-20T09:48:56.802Z,46.4
2022-11-20T09:50:14.626Z,45
2022-11-20T09:51:32.264Z,43.5
2022-11-20T09:52:52.189Z,43.2
2022-11-20T09:54:04.205Z,43.8
2022-11-20T09:55:19.124Z,40
2022-11-20T09:56:26.950Z,38.9
2022-11-20T09:57:34.946Z,38.7
2022-11-20T09:58:43.220Z,41.9
2022-11-20T09:59:51.774Z,36.9
2022-11-20T10:01:02.036Z,36.8
2022-11-20T10:02:13.258Z,39.3
2022-11-20T10:03:23.609Z,39.2
2022-11-20T10:04:41.246Z,39.2
2022-11-20T10:05:48.551Z,39.2
2022-11-20T10:07:10.340Z,39.2
2022-11-20T10:08:11.800Z,40.7
2022-11-20T10:09:24.132Z,40.5
2022-11-20T10:10:33.940Z,41.5
2022-11-20T10:11:47.013Z,43.1
2022-11-20T10:13:00.454Z,40.5
2022-11-20T10:14:15.601Z,40.9
2022-11-20T10:15:30.563Z,41.8
2022-11-20T10:16:41.081Z,39.2
2022-11-20T10:17:52.000Z,37.1
2022-11-20T10:19:04.413Z,39.2
2022-11-20T10:20:17.767Z,36.8
2022-11-20T10:21:25.932Z,37.9
2022-11-20T10:22:43.512Z,38.1
2022-11-20T10:23:58.540Z,38.2
2022-11-20T10:25:15.957Z,36.8
2022-11-20T10:26:23.532Z,35.3
2022-11-20T10:27:35.945Z,38.9
2022-11-20T10:28:57.358Z,40.4
2022-11-20T10:30:04.315Z,36.6
2022-11-20T10:31:13.910Z,36.8
2022-11-20T10:32:31.219Z,34
2022-11-20T10:33:50.370Z,35.8
2022-11-20T10:34:46.030Z,35.5
2022-11-20T10:35:58.504Z,37
2022-11-20T10:37:13.057Z,39.1
2022-11-20T10:38:23.291Z,38.2
2022-11-20T10:39:35.946Z,35.5
2022-11-20T10:40:44.176Z,34.8
2022-11-20T10:41:57.349Z,32.9
2022-11-20T10:43:04.389Z,34.7
2022-11-20T10:44:14.905Z,35.6
2022-11-20T10:45:32.608Z,37.3
2022-11-20T10:46:45.242Z,36.7
2022-11-20T10:50:22.380Z,43.2
2022-11-20T10:51:28.244Z,41.1
2022-11-20T10:52:36.700Z,43.2
2022-11-20T10:53:54.864Z,40.5
2022-11-20T10:55:07.188Z,38.7
2022-11-20T10:56:24.552Z,39.9
2022-11-20T10:57:42.397Z,38.8
2022-11-20T10:58:58.476Z,38.5
2022-11-20T11:00:15.770Z,39.8
2022-11-20T11:01:23.469Z,39.7
2022-11-20T11:02:30.877Z,37
2022-11-20T11:03:44.490Z,37.2
2022-11-20T11:04:51.500Z,38.8
2022-11-20T11:05:58.896Z,37.6
2022-11-20T11:07:11.374Z,34.5
2022-11-20T11:08:24.956Z,36.8
2022-11-20T11:09:35.053Z,34.8
2022-11-20T11:10:48.067Z,38.2
2022-11-20T11:12:05.839Z,36.7
2022-11-20T11:13:11.490Z,33.9
2022-11-20T11:14:23.961Z,35.4
2022-11-20T11:15:31.396Z,36.9
2022-11-20T11:16:42.528Z,34.4
2022-11-20T11:17:55.825Z,34.2
2022-11-20T11:19:03.121Z,34.8
2022-11-20T11:20:16.313Z,33.8
2022-11-20T11:21:27.825Z,32.8
2022-11-20T11:22:35.349Z,33.3
2022-11-20T11:23:48.072Z,31.9
2022-11-20T11:25:05.817Z,32.2
2022-11-20T11:26:13.373Z,31.6
2022-11-20T11:27:24.185Z,30.8
2022-11-20T11:28:31.852Z,31.7
2022-11-20T11:29:39.665Z,33.7
2022-11-20T11:30:48.037Z,32.9
2022-11-20T11:31:56.509Z,31
2022-11-20T11:33:08.896Z,30.4
2022-11-20T11:34:17.144Z,36.7
2022-11-20T11:35:24.456Z,34.5
2022-11-20T11:36:31.753Z,33.8
2022-11-20T11:37:39.949Z,35.4
2022-11-20T11:38:47.589Z,31.1
2022-11-20T11:40:16.335Z,31.2
2022-11-20T11:41:02.497Z,30.2
2022-11-20T11:42:10.936Z,29.8
2022-11-20T11:43:18.389Z,27.9
2022-11-20T11:44:31.029Z,27.6
2022-11-20T11:45:43.657Z,26.1
2022-11-20T11:46:51.721Z,26.5
2022-11-20T11:48:00.168Z,25.7
2022-11-20T11:49:07.608Z,25.8
2022-11-20T11:50:14.898Z,26.7
2022-11-20T11:51:25.829Z,28.6
2022-11-20T11:52:33.304Z,28.2
2022-11-20T11:53:50.893Z,26.1
2022-11-20T11:54:59.830Z,27.6
2022-11-20T11:56:07.074Z,28.6
2022-11-20T11:57:14.357Z,26.5
2022-11-20T11:58:30.490Z,28.4
2022-11-20T11:59:43.749Z,29.1
2022-11-20T12:01:00.558Z,27.9
2022-11-20T12:02:14.005Z,27.6
2022-11-20T12:03:29.335Z,31.2
2022-11-20T12:04:43.000Z,30.3
2022-11-20T12:05:53.281Z,26.7
2022-11-20T12:07:13.185Z,26.2
2022-11-20T12:08:17.663Z,26.1
2022-11-20T12:09:34.857Z,27.1
2022-11-20T12:10:42.418Z,30.5
2022-11-20T12:12:00.412Z,29.6
2022-11-20T12:13:15.996Z,29.8
2022-11-20T12:14:33.466Z,28
2022-11-20T12:15:45.618Z,27.3
2022-11-20T12:16:53.206Z,28.6
2022-11-20T12:18:00.184Z,27.8
2022-11-20T12:19:07.521Z,27
2022-11-20T12:20:15.152Z,27
2022-11-20T12:21:22.576Z,28.7
2022-11-20T12:22:36.129Z,25.7
2022-11-20T12:23:48.696Z,22.7
2022-11-20T12:24:58.800Z,25.9
2022-11-20T12:26:15.444Z,26.2
2022-11-20T12:27:25.385Z,24.9
2022-11-20T12:28:40.897Z,22.7
2022-11-20T12:29:53.440Z,22.3
2022-11-20T12:31:06.112Z,23.2
2022-11-20T12:32:23.789Z,22.8
2022-11-20T12:33:42.014Z,24
2022-11-20T12:34:55.200Z,23.5
2022-11-20T12:36:12.868Z,22.3
2022-11-20T12:37:29.789Z,24.1
2022-11-20T12:38:47.525Z,23.5
2022-11-20T12:40:05.409Z,23.1
2022-11-20T12:41:23.106Z,23.4
2022-11-20T12:42:46.488Z,24.4
2022-11-20T12:44:01.917Z,20.9
2022-11-20T12:45:22.781Z,21.9
2022-11-20T12:46:33.100Z,22.7
2022-11-20T12:47:43.149Z,21.1
2022-11-20T12:49:01.024Z,21.4
2022-11-20T12:50:14.804Z,21.7
2022-11-20T12:51:27.524Z,22
2022-11-20T12:52:47.530Z,20.1
2022-11-20T12:53:59.958Z,21.2
2022-11-20T12:55:12.542Z,19.8
2022-11-20T12:56:30.560Z,19.3
2022-11-20T12:57:45.704Z,19
2022-11-20T12:58:57.722Z,20
2022-11-20T13:00:12.892Z,21.9
2022-11-20T13:01:22.707Z,21
2022-11-20T13:02:43.613Z,21.1
2022-11-20T13:04:05.210Z,19.5
2022-11-20T13:05:21.307Z,17.5
2022-11-20T13:06:40.464Z,18.8
2022-11-20T13:07:48.001Z,20
2022-11-20T13:08:55.977Z,18.2
2022-11-20T13:10:10.225Z,18.5
2022-11-20T13:11:24.454Z,18.1
2022-11-20T13:12:37.592Z,19
2022-11-20T13:13:44.879Z,19.5
2022-11-20T13:15:02.892Z,19.4
2022-11-20T13:16:20.532Z,20.8
2022-11-20T13:17:36.848Z,19.5
2022-11-20T13:18:53.244Z,21.8
2022-11-20T13:20:01.477Z,21
2022-11-20T13:21:08.824Z,21.3
2022-11-20T13:22:22.057Z,21.2
2022-11-20T13:23:37.645Z,21.5
2022-11-20T13:24:45.105Z,22.1
2022-11-20T13:25:53.706Z,22.7
2022-11-20T13:27:11.364Z,21.9
2022-11-20T13:28:18.640Z,24.1
2022-11-20T13:29:26.103Z,23.6
2022-11-20T13:30:33.268Z,24.3
2022-11-20T13:31:40.344Z,24.8
2022-11-20T13:32:49.277Z,26.7
2022-11-20T13:34:01.573Z,26.5
2022-11-20T13:35:09.697Z,26.4
2022-11-20T13:36:17.385Z,26.4
2022-11-20T13:37:28.536Z,26.2
2022-11-20T13:38:39.985Z,26.1
2022-11-20T13:39:48.072Z,26.7
2022-11-20T13:40:55.280Z,26.3
2022-11-20T13:42:03.176Z,26.7
2022-11-20T13:43:15.742Z,29.2
2022-11-20T13:44:26.862Z,30.2
2022-11-20T13:45:35.572Z,30.3
2022-11-20T13:46:42.660Z,28.1
2022-11-20T13:47:50.329Z,28.5
2022-11-20T13:48:57.552Z,29.8
2022-11-20T13:50:04.726Z,31.4
2022-11-20T13:51:11.744Z,31.4
2022-11-20T13:52:30.305Z,32.3
2022-11-20T13:53:46.144Z,29.8
2022-11-20T13:54:58.994Z,30.7
2022-11-20T13:56:16.929Z,31.1
2022-11-20T13:57:29.020Z,31.7
2022-11-20T13:58:39.460Z,32.3
2022-11-20T13:59:55.465Z,29
2022-11-20T14:01:03.742Z,30.6
2022-11-20T14:02:18.576Z,31.6
2022-11-20T14:03:51.020Z,33.9
2022-11-20T14:04:33.703Z,33.3
2022-11-20T14:05:41.652Z,34.1
2022-11-20T14:06:58.884Z,31.3
2022-11-20T14:08:06.040Z,34.1
2022-11-20T14:09:13.335Z,32.7
2022-11-20T14:10:31.955Z,35
2022-11-20T14:11:36.262Z,36.1
2022-11-20T14:12:43.893Z,33.3
2022-11-20T14:13:51.149Z,29.9
2022-11-20T14:14:59.195Z,32.4
2022-11-20T14:16:07.415Z,31.1
2022-11-20T14:17:15.019Z,32.2
2022-11-20T14:18:22.055Z,32.6
2022-11-20T14:19:29.114Z,30.3
2022-11-20T14:20:36.179Z,30.7
2022-11-20T14:21:43.662Z,29.9
2022-11-20T14:22:53.592Z,30.3
2022-11-20T14:24:00.868Z,31.4
2022-11-20T14:25:11.470Z,32.6
2022-11-20T14:26:18.731Z,32.7
2022-11-20T14:27:26.050Z,28.9
2022-11-20T14:28:33.364Z,31.6
2022-11-20T14:29:41.330Z,28.7
2022-11-20T14:30:48.787Z,29.9
2022-11-20T14:31:56.415Z,31.4
2022-11-20T14:33:03.582Z,29.3
2022-11-20T14:34:11.966Z,29.3
2022-11-20T14:35:24.854Z,30.5
2022-11-20T14:36:32.246Z,28.4
2022-11-20T14:37:39.514Z,26.7
2022-11-20T14:38:46.650Z,29.1
2022-11-20T14:39:53.836Z,29.5
2022-11-20T14:41:01.100Z,28.5
2022-11-20T14:42:10.899Z,27.3
2022-11-20T14:43:21.118Z,30.4
2022-11-20T14:44:28.847Z,28.5
2022-11-20T14:45:36.195Z,28.9
2022-11-20T14:46:43.322Z,29.5
2022-11-20T14:47:50.498Z,29.3
2022-11-20T14:48:58.434Z,28.8
2022-11-20T14:50:09.757Z,27.6
2022-11-20T14:51:15.447Z,28.3
2022-11-20T14:52:32.676Z,29.2
2022-11-20T14:53:39.908Z,28.5
2022-11-20T14:54:46.865Z,28.7
2022-11-20T14:55:58.620Z,28.3
2022-11-20T14:57:02.216Z,29.7
2022-11-20T14:58:09.763Z,29.5
2022-11-20T14:59:25.047Z,29.5
2022-11-20T15:00:32.515Z,29.8
2022-11-20T15:01:39.746Z,29.3
2022-11-20T15:02:46.928Z,27.2
2022-11-20T15:03:54.531Z,29.2
2022-11-20T15:05:09.850Z,28.1
2022-11-20T15:06:17.271Z,29.1
2022-11-20T15:07:26.096Z,32
2022-11-20T15:08:36.030Z,30.3
2022-11-20T15:09:43.471Z,28.1
2022-11-20T15:10:50.881Z,29.9
2022-11-20T15:11:58.004Z,30.7
2022-11-20T15:13:09.868Z,32.9
2022-11-20T15:14:15.931Z,32
2022-11-20T15:15:23.450Z,32
2022-11-20T15:16:41.942Z,31.3
2022-11-20T15:17:49.634Z,31.5
2022-11-20T15:18:57.142Z,32.3
2022-11-20T15:20:04.528Z,32.5
2022-11-20T15:21:17.701Z,30.5
2022-11-20T15:22:28.203Z,33.9
2022-11-20T15:23:35.487Z,32.3
2022-11-20T15:24:44.094Z,31.1